Time;durP1;ratioP1;P1;durP2;ratioP2;P2;SDS_P1;SDS_P2;PMS_P1;PMS_P2;Temp;Humidity;BMP_temperature;BMP_pressure;BME280_temperature;BME280_humidity;BME280_pressure;Samples;Min_cycle;Max_cycle;Signal;HPM_P1;HPM_P2
2023/05/25 00:00:14;;;;;;;18.65;6.90;;;;;;;11.09;100.00;102261.13;5012266;28;20730;-45
2023/05/25 00:02:41;;;;;;;20.67;6.75;;;;;;;11.17;100.00;102261.00;5011740;28;20327;-47
2023/05/25 00:05:09;;;;;;;16.27;6.40;;;;;;;11.29;100.00;102261.66;5011999;28;20257;-47
2023/05/25 00:07:35;;;;;;;11.85;5.93;;;;;;;11.16;100.00;102260.13;5011595;28;20753;-49
2023/05/25 00:10:01;;;;;;;13.30;6.00;;;;;;;11.10;100.00;102262.91;5011684;28;20197;-48
2023/05/25 00:12:26;;;;;;;24.20;7.20;;;;;;;11.02;100.00;102265.72;5011557;28;20224;-45
2023/05/25 00:14:52;;;;;;;17.35;6.45;;;;;;;10.97;100.00;102264.91;5011554;28;20213;-47
2023/05/25 00:17:17;;;;;;;11.85;6.00;;;;;;;11.00;100.00;102270.22;5011425;28;20181;-47
2023/05/25 00:19:43;;;;;;;16.05;6.47;;;;;;;10.92;100.00;102278.38;5011407;28;20275;-48
2023/05/25 00:22:10;;;;;;;18.95;6.38;;;;;;;10.98;100.00;102279.22;5011367;28;20710;-45
2023/05/25 00:24:37;;;;;;;17.40;6.72;;;;;;;10.82;100.00;102276.78;5010675;28;20776;-47
2023/05/25 00:27:03;;;;;;;15.45;6.78;;;;;;;10.72;100.00;102278.72;5010253;28;20196;-47
2023/05/25 00:29:29;;;;;;;17.75;5.90;;;;;;;10.75;100.00;102282.25;5010024;28;20201;-46
2023/05/25 00:31:55;;;;;;;18.88;6.68;;;;;;;10.81;100.00;102283.03;5011094;28;20548;-45
2023/05/25 00:34:21;;;;;;;16.35;5.68;;;;;;;10.75;100.00;102275.09;5009650;28;20433;-48
2023/05/25 00:36:47;;;;;;;15.88;6.45;;;;;;;10.67;100.00;102285.94;5008865;28;20201;-46
2023/05/25 00:39:18;;;;;;;13.38;6.72;;;;;;;10.85;100.00;102281.22;5011207;28;20180;-47
2023/05/25 00:41:45;;;;;;;15.73;5.90;;;;;;;10.81;100.00;102269.63;5010902;28;20196;-45
2023/05/25 00:44:20;;;;;;;21.40;6.80;;;;;;;10.75;100.00;102283.13;5010918;28;20204;-45
2023/05/25 00:46:51;;;;;;;16.65;5.50;;;;;;;10.74;100.00;102277.81;5006010;28;20839;-45
2023/05/25 00:49:18;;;;;;;14.02;5.97;;;;;;;10.60;100.00;102286.03;5010850;28;20660;-46
2023/05/25 00:51:46;;;;;;;15.20;6.18;;;;;;;10.52;100.00;102284.38;5009476;28;20211;-46
2023/05/25 00:54:16;;;;;;;15.35;5.85;;;;;;;10.58;100.00;102283.38;5008016;28;20201;-47
2023/05/25 00:56:51;;;;;;;14.20;5.50;;;;;;;10.51;100.00;102281.72;5010694;28;20216;-46
2023/05/25 00:59:40;;;;;;;12.77;6.07;;;;;;;10.49;100.00;102279.06;5023171;28;20280;-46
2023/05/25 01:02:16;;;;;;;12.10;5.68;;;;;;;10.57;100.00;102284.31;5008161;28;20192;-46
2023/05/25 01:05:05;;;;;;;16.63;6.32;;;;;;;10.31;100.00;102282.88;5008921;28;20558;-48
2023/05/25 01:07:32;;;;;;;15.57;5.93;;;;;;;10.37;100.00;102271.19;5004215;28;20192;-45
2023/05/25 01:10:00;;;;;;;15.02;5.88;;;;;;;10.31;100.00;102280.19;5008725;28;20659;-47
2023/05/25 01:12:29;;;;;;;15.75;5.20;;;;;;;10.17;100.00;102283.97;5010323;28;20701;-48
2023/05/25 01:14:55;;;;;;;15.02;5.95;;;;;;;10.16;100.00;102280.38;5010366;28;20372;-47
2023/05/25 01:17:25;;;;;;;11.70;5.32;;;;;;;10.23;100.00;102274.06;5009410;28;20219;-46
2023/05/25 01:19:51;;;;;;;15.15;5.50;;;;;;;10.21;100.00;102272.28;5010320;28;20188;-48
2023/05/25 01:22:21;;;;;;;14.60;5.38;;;;;;;10.13;100.00;102288.47;5010440;28;20408;-45
2023/05/25 01:25:00;;;;;;;15.88;5.68;;;;;;;9.90;100.00;102286.97;5008872;28;20204;-47
2023/05/25 01:27:58;;;;;;;14.23;5.43;;;;;;;9.86;100.00;102295.94;5008542;28;20274;-46
2023/05/25 01:30:26;;;;;;;16.30;6.18;;;;;;;9.94;100.00;102297.63;5023649;28;20196;-48
2023/05/25 01:32:53;;;;;;;11.23;4.95;;;;;;;9.99;100.00;102285.97;5008689;28;20192;-44
2023/05/25 01:35:20;;;;;;;16.10;6.43;;;;;;;9.79;100.00;102288.84;5008965;28;20689;-45
2023/05/25 01:37:46;;;;;;;12.68;5.47;;;;;;;9.85;100.00;102302.16;5007340;28;20315;-46
2023/05/25 01:40:13;;;;;;;13.13;5.25;;;;;;;9.77;100.00;102300.50;5008892;28;20188;-46
2023/05/25 01:42:38;;;;;;;12.50;5.60;;;;;;;9.62;100.00;102301.53;5008667;28;20184;-45
2023/05/25 01:45:05;;;;;;;12.65;5.72;;;;;;;9.68;100.00;102298.78;5010084;28;20213;-48
2023/05/25 01:47:44;;;;;;;11.90;5.57;;;;;;;9.46;100.00;102309.72;5008986;28;20197;-46
2023/05/25 01:50:28;;;;;;;13.48;5.82;;;;;;;9.57;100.00;102308.72;5008474;28;20247;-45
2023/05/25 01:53:08;;;;;;;14.00;6.10;;;;;;;9.56;100.00;102306.97;5008607;28;20235;-46
2023/05/25 01:55:41;;;;;;;12.02;5.75;;;;;;;9.49;100.00;102324.88;4998209;28;20212;-45
2023/05/25 01:58:07;;;;;;;13.52;5.30;;;;;;;9.39;100.00;102321.38;5007496;28;20184;-47
2023/05/25 02:00:34;;;;;;;16.65;6.20;;;;;;;9.39;100.00;102325.88;5008829;28;20184;-45
2023/05/25 02:03:00;;;;;;;16.25;6.25;;;;;;;9.37;100.00;102317.84;5009577;28;20169;-46
2023/05/25 02:05:26;;;;;;;13.45;6.07;;;;;;;9.32;100.00;102324.16;5023806;28;20349;-46
2023/05/25 02:07:52;;;;;;;13.82;5.90;;;;;;;9.40;100.00;102316.91;5006769;28;20222;-47
2023/05/25 02:10:18;;;;;;;14.75;6.38;;;;;;;9.36;100.00;102324.09;5009691;28;20656;-48
2023/05/25 02:12:44;;;;;;;12.15;5.60;;;;;;;9.48;100.00;102323.09;5010071;28;20271;-46
2023/05/25 02:15:10;;;;;;;11.77;6.00;;;;;;;9.36;100.00;102318.75;5010026;28;20606;-45
2023/05/25 02:17:37;;;;;;;10.43;5.05;;;;;;;9.26;100.00;102319.72;5010163;28;20176;-46
2023/05/25 02:20:07;;;;;;;12.65;5.75;;;;;;;9.14;100.00;102315.38;4998302;28;20187;-48
2023/05/25 02:22:33;;;;;;;13.50;6.05;;;;;;;9.22;100.00;102313.50;5009657;28;20180;-48
2023/05/25 02:24:58;;;;;;;16.35;6.15;;;;;;;9.20;100.00;102327.81;5009822;28;20579;-47
2023/05/25 02:27:24;;;;;;;16.27;6.40;;;;;;;9.22;100.00;102326.00;5009647;28;20197;-46
2023/05/25 02:29:52;;;;;;;12.98;5.88;;;;;;;9.23;100.00;102326.00;5008592;28;20189;-49
2023/05/25 02:32:17;;;;;;;13.25;6.15;;;;;;;9.13;100.00;102318.94;5007867;28;20184;-45
2023/05/25 02:34:43;;;;;;;16.13;6.15;;;;;;;9.06;100.00;102338.63;5007967;28;20259;-47
2023/05/25 02:37:08;;;;;;;14.43;6.65;;;;;;;8.96;100.00;102337.78;5009216;28;20176;-50
2023/05/25 02:39:34;;;;;;;13.30;6.50;;;;;;;8.95;100.00;102335.13;5007658;28;20559;-48
2023/05/25 02:42:00;;;;;;;16.00;6.80;;;;;;;8.97;100.00;102331.56;5008419;28;20247;-47
2023/05/25 02:44:26;;;;;;;15.85;6.35;;;;;;;8.85;100.00;102335.22;5009576;28;20588;-46
2023/05/25 02:46:51;;;;;;;13.55;6.43;;;;;;;8.82;100.00;102340.56;5008177;28;20284;-48
2023/05/25 02:49:17;;;;;;;16.55;6.93;;;;;;;8.85;100.00;102345.00;5005908;28;20508;-47
2023/05/25 02:51:42;;;;;;;13.75;6.18;;;;;;;8.90;100.00;102340.53;5013371;28;20176;-46
2023/05/25 02:54:08;;;;;;;17.00;7.57;;;;;;;8.80;100.00;102337.00;5011734;28;20200;-48
2023/05/25 02:56:33;;;;;;;16.48;6.70;;;;;;;8.89;100.00;102337.84;5026937;28;20192;-45
2023/05/25 02:59:00;;;;;;;16.95;7.40;;;;;;;8.73;100.00;102350.44;5011414;28;20267;-46
2023/05/25 03:01:30;;;;;;;13.70;6.38;;;;;;;8.79;100.00;102342.34;5009488;28;20204;-47
2023/05/25 03:03:56;;;;;;;18.42;7.00;;;;;;;8.74;100.00;102336.16;4994562;28;20247;-48
2023/05/25 03:06:24;;;;;;;20.20;6.85;;;;;;;8.81;100.00;102354.84;5010794;28;20202;-48
2023/05/25 03:08:54;;;;;;;14.18;6.38;;;;;;;8.80;100.00;102344.16;5009268;28;20191;-47
2023/05/25 03:11:19;;;;;;;18.40;7.18;;;;;;;8.79;100.00;102355.72;5012638;28;20264;-49
2023/05/25 03:13:46;;;;;;;18.13;6.55;;;;;;;8.80;100.00;102357.50;5011960;28;20191;-47
2023/05/25 03:16:13;;;;;;;16.98;6.13;;;;;;;8.78;100.00;102354.84;5011363;28;20181;-46
2023/05/25 03:18:38;;;;;;;18.95;7.00;;;;;;;8.87;100.00;102362.78;5011325;28;20185;-47
2023/05/25 03:21:04;;;;;;;14.95;6.03;;;;;;;8.86;100.00;102358.34;5012537;28;20235;-49
2023/05/25 03:23:30;;;;;;;20.60;7.45;;;;;;;8.79;100.00;102369.06;5010880;28;20188;-48
2023/05/25 03:25:57;;;;;;;21.10;7.20;;;;;;;8.76;100.00;102361.09;5010812;28;20247;-46
2023/05/25 03:28:23;;;;;;;14.95;5.90;;;;;;;8.87;100.00;102370.81;5010762;28;20604;-46
2023/05/25 03:30:49;;;;;;;16.27;5.43;;;;;;;8.86;100.00;102368.16;5010719;28;20176;-47
2023/05/25 03:33:14;;;;;;;13.65;5.72;;;;;;;9.01;100.00;102368.06;5010504;28;20272;-47
2023/05/25 03:35:44;;;;;;;17.83;5.90;;;;;;;8.84;100.00;102375.31;5010073;28;20687;-48
2023/05/25 03:38:10;;;;;;;18.40;6.07;;;;;;;8.83;100.00;102362.81;5008522;28;20181;-48
2023/05/25 03:40:35;;;;;;;14.35;5.30;;;;;;;8.87;100.00;102370.81;5010569;28;20192;-47
2023/05/25 03:43:01;;;;;;;16.20;6.32;;;;;;;8.86;100.00;102369.03;5011994;28;20169;-47
2023/05/25 03:45:27;;;;;;;17.00;6.03;;;;;;;8.91;100.00;102366.34;4994043;28;20205;-47
2023/05/25 03:47:52;;;;;;;21.23;6.05;;;;;;;8.84;100.00;102361.94;5011831;28;20630;-47
2023/05/25 03:50:19;;;;;;;16.67;6.38;;;;;;;8.73;100.00;102370.03;5010776;28;20184;-48
2023/05/25 03:52:45;;;;;;;20.75;5.90;;;;;;;8.80;100.00;102360.19;5010206;28;20259;-48
2023/05/25 03:55:10;;;;;;;15.38;5.75;;;;;;;8.92;100.00;102361.88;5010222;28;20230;-45
2023/05/25 03:57:36;;;;;;;20.05;6.53;;;;;;;8.88;100.00;102369.03;5011672;28;20242;-48
2023/05/25 04:00:01;;;;;;;20.17;6.65;;;;;;;8.98;100.00;102375.22;5011506;28;20752;-47
2023/05/25 04:02:27;;;;;;;17.48;6.03;;;;;;;8.81;100.00;102370.88;5011476;28;20196;-46
2023/05/25 04:04:55;;;;;;;23.50;6.35;;;;;;;8.72;100.00;102380.72;5010198;28;20300;-48
2023/05/25 04:07:20;;;;;;;18.38;5.20;;;;;;;8.86;100.00;102370.84;5007500;28;20207;-47
2023/05/25 04:09:46;;;;;;;21.23;6.22;;;;;;;8.82;100.00;102369.97;5011671;28;20523;-49
2023/05/25 04:12:11;;;;;;;16.38;6.18;;;;;;;8.92;100.00;102369.91;5010377;28;20183;-48
2023/05/25 04:14:37;;;;;;;15.48;5.82;;;;;;;8.87;100.00;102375.28;5010281;28;20196;-49
2023/05/25 04:17:03;;;;;;;19.05;5.70;;;;;;;8.99;100.00;102374.31;5011213;28;20561;-47
2023/05/25 04:19:29;;;;;;;19.40;5.85;;;;;;;8.83;100.00;102376.19;5010365;28;20234;-47
2023/05/25 04:21:55;;;;;;;19.77;5.72;;;;;;;8.90;100.00;102377.03;5011407;28;20172;-47
2023/05/25 04:24:21;;;;;;;15.70;6.20;;;;;;;8.89;100.00;102372.59;5009598;28;20216;-48
2023/05/25 04:26:48;;;;;;;20.10;6.13;;;;;;;8.95;100.00;102377.91;5009616;28;20758;-49
2023/05/25 04:29:14;;;;;;;21.42;6.65;;;;;;;8.85;100.00;102374.41;5009898;28;20200;-46
2023/05/25 04:31:58;;;;;;;15.75;5.85;;;;;;;9.06;100.00;102382.28;5010003;28;20185;-49
2023/05/25 04:34:36;;;;;;;20.73;6.10;;;;;;;9.00;100.00;102376.97;5010967;28;20203;-47
2023/05/25 04:37:14;;;;;;;20.90;6.43;;;;;;;8.99;100.00;102382.34;5008752;28;20757;-50
2023/05/25 04:39:39;;;;;;;18.00;5.53;;;;;;;9.14;100.00;102379.56;5010449;28;20192;-51
2023/05/25 04:42:05;;;;;;;20.85;6.53;;;;;;;9.13;100.00;102380.44;5008142;28;20188;-51
2023/05/25 04:44:32;;;;;;;25.40;6.57;;;;;;;9.21;100.00;102383.97;5009759;28;20220;-49
2023/05/25 04:47:00;;;;;;;19.63;6.18;;;;;;;9.16;100.00;102384.88;5009859;28;20574;-49
2023/05/25 04:49:30;;;;;;;24.38;5.90;;;;;;;9.27;100.00;102388.34;5011226;28;20183;-49
2023/05/25 04:51:55;;;;;;;24.10;5.82;;;;;;;9.43;100.00;102390.03;5006022;28;20173;-50
2023/05/25 04:54:21;;;;;;;18.70;5.55;;;;;;;9.56;100.00;102385.44;5010943;28;20201;-48
2023/05/25 04:56:46;;;;;;;21.58;5.57;;;;;;;9.65;100.00;102379.13;5009906;28;20169;-47
2023/05/25 04:59:12;;;;;;;32.90;6.65;;;;;;;9.63;100.00;102379.13;5011152;28;20188;-43
2023/05/25 05:01:41;;;;;;;23.15;6.00;;;;;;;9.69;100.00;102386.22;5009131;28;20176;-45
2023/05/25 05:04:07;;;;;;;17.67;5.00;;;;;;;9.88;100.00;102379.78;5009160;28;20428;-43
2023/05/25 05:06:33;;;;;;;23.05;5.95;;;;;;;9.85;100.00;102382.47;5008973;28;20617;-44
2023/05/25 05:09:00;;;;;;;24.95;5.90;;;;;;;10.06;100.00;102378.69;5005969;28;20631;-41
2023/05/25 05:11:27;;;;;;;23.80;5.57;;;;;;;9.97;100.00;102375.22;5009360;28;20189;-44
2023/05/25 05:13:54;;;;;;;23.42;6.15;;;;;;;9.98;100.00;102367.19;4997148;28;20192;-44
2023/05/25 05:16:21;;;;;;;23.45;5.80;;;;;;;10.09;100.00;102381.34;5006952;28;20279;-42
2023/05/25 05:18:47;;;;;;;25.50;5.93;;;;;;;10.17;100.00;102383.94;5010142;28;20180;-44
2023/05/25 05:21:12;;;;;;;22.50;5.75;;;;;;;10.36;100.00;102378.38;5010481;28;20177;-44
2023/05/25 05:23:39;;;;;;;30.20;5.82;;;;;;;10.23;100.00;102385.63;5008973;28;20575;-44
2023/05/25 05:26:06;;;;;;;23.40;5.75;;;;;;;10.11;100.00;102386.69;5010141;28;20192;-42
2023/05/25 05:28:31;;;;;;;26.40;6.13;;;;;;;10.30;100.00;102385.59;5008717;28;20196;-45
2023/05/25 05:30:57;;;;;;;29.45;5.88;;;;;;;10.31;100.00;102376.63;5009010;28;20546;-42
2023/05/25 05:33:23;;;;;;;29.60;5.97;;;;;;;10.41;100.00;102388.16;5008680;28;20721;-43
2023/05/25 05:35:51;;;;;;;25.35;6.18;;;;;;;10.63;100.00;102391.44;4992044;28;20291;-43
2023/05/25 05:38:20;;;;;;;31.88;7.25;;;;;;;10.35;100.00;102379.31;5008278;28;20636;-44
2023/05/25 05:40:46;;;;;;;30.35;6.07;;;;;;;10.23;100.00;102380.28;5008222;28;20193;-44
2023/05/25 05:43:17;;;;;;;27.35;6.93;;;;;;;10.23;100.00;102383.88;5008205;28;20192;-44
2023/05/25 05:45:42;;;;;;;28.77;7.03;;;;;;;10.17;100.00;102391.97;5009366;28;20208;-48
2023/05/25 05:48:08;;;;;;;33.60;6.82;;;;;;;10.28;100.00;102389.16;5007469;28;20342;-45
2023/05/25 05:50:38;;;;;;;27.40;6.13;;;;;;;10.57;100.00;102398.66;5009572;28;20238;-46
2023/05/25 05:53:05;;;;;;;36.05;7.05;;;;;;;10.54;100.00;102394.25;5007959;28;20181;-45
2023/05/25 05:55:31;;;;;;;25.48;6.15;;;;;;;10.27;100.00;102395.41;5008614;28;20216;-44
2023/05/25 05:57:57;;;;;;;31.40;6.65;;;;;;;10.17;100.00;102397.34;5009979;28;20172;-46
2023/05/25 06:00:23;;;;;;;27.85;6.22;;;;;;;10.12;100.00;102404.50;5008167;28;20176;-46
2023/05/25 06:02:50;;;;;;;29.02;6.15;;;;;;;10.40;100.00;102397.06;5007775;28;20195;-45
2023/05/25 06:05:22;;;;;;;28.33;6.38;;;;;;;10.42;100.00;102399.75;5008229;28;20228;-46
2023/05/25 06:07:48;;;;;;;26.80;6.50;;;;;;;10.41;100.00;102403.34;5006662;28;20279;-45
2023/05/25 06:10:15;;;;;;;27.65;6.00;;;;;;;10.54;100.00;102412.09;5008199;28;20181;-45
2023/05/25 06:12:42;;;;;;;27.25;6.38;;;;;;;10.60;100.00;102407.53;5007858;28;20211;-45
2023/05/25 06:15:08;;;;;;;28.67;6.65;;;;;;;10.56;100.00;102400.47;5009205;28;20575;-47
2023/05/25 06:17:36;;;;;;;25.02;6.43;;;;;;;10.44;100.00;102404.16;5007307;28;20543;-45
2023/05/25 06:20:02;;;;;;;30.67;6.15;;;;;;;10.49;100.00;102410.38;5008273;28;20188;-46
2023/05/25 06:22:28;;;;;;;28.08;6.55;;;;;;;10.76;100.00;102397.53;5007932;28;20679;-45
2023/05/25 06:24:55;;;;;;;30.63;6.70;;;;;;;10.87;100.00;102405.41;5012285;28;20208;-45
2023/05/25 06:27:22;;;;;;;25.42;6.20;;;;;;;10.93;100.00;102411.56;5011238;28;20188;-45
2023/05/25 06:29:48;;;;;;;31.27;6.38;;;;;;;10.71;100.00;102410.06;5009757;28;20270;-46
2023/05/25 06:32:13;;;;;;;29.77;6.00;;;;;;;10.88;100.00;102412.53;5011850;28;20244;-47
2023/05/25 06:34:39;;;;;;;28.33;6.57;;;;;;;10.81;100.00;102408.19;5009358;28;20699;-45
2023/05/25 06:37:05;;;;;;;26.20;6.07;;;;;;;11.26;100.00;102408.38;5010998;28;20257;-46
2023/05/25 06:39:31;;;;;;;29.10;6.10;;;;;;;11.38;100.00;102410.88;5011935;28;20196;-47
2023/05/25 06:41:57;;;;;;;25.95;6.47;;;;;;;11.32;99.11;102414.53;5012988;28;20554;-48
2023/05/25 06:44:29;;;;;;;27.25;6.50;;;;;;;11.49;98.39;102413.41;5009944;28;20588;-46
2023/05/25 06:46:54;;;;;;;29.77;6.40;;;;;;;11.55;97.55;102424.91;5010041;28;20196;-44
2023/05/25 06:49:20;;;;;;;23.88;6.00;;;;;;;11.41;96.92;102420.69;5012212;28;20635;-46
2023/05/25 06:51:47;;;;;;;35.47;6.28;;;;;;;11.31;95.52;102419.94;5012567;28;20604;-45
2023/05/25 06:54:14;;;;;;;27.13;6.35;;;;;;;11.06;94.81;102417.66;5012182;28;20208;-45
2023/05/25 06:56:39;;;;;;;31.02;6.75;;;;;;;11.74;94.98;102408.47;5012680;28;20199;-45
2023/05/25 06:59:05;;;;;;;35.03;6.72;;;;;;;11.58;93.24;102401.63;5010367;28;20181;-45
2023/05/25 07:01:30;;;;;;;32.70;6.88;;;;;;;11.72;92.72;102402.28;5012733;28;20187;-47
2023/05/25 07:03:56;;;;;;;34.35;6.75;;;;;;;11.22;91.80;102412.06;5012240;28;20201;-46
2023/05/25 07:06:21;;;;;;;27.52;7.20;;;;;;;11.33;91.78;102410.09;5012630;28;20532;-45
2023/05/25 07:08:47;;;;;;;29.90;6.03;;;;;;;11.60;91.73;102405.16;5010303;28;20216;-45
2023/05/25 07:11:13;;;;;;;38.10;7.53;;;;;;;11.25;91.11;102420.03;5012356;28;20279;-46
2023/05/25 07:13:39;;;;;;;31.25;6.40;;;;;;;11.25;91.63;102425.41;5008922;28;20173;-46
2023/05/25 07:16:04;;;;;;;32.67;6.82;;;;;;;11.44;91.24;102424.22;5012248;28;20195;-48
2023/05/25 07:18:30;;;;;;;31.80;7.57;;;;;;;11.22;90.57;102426.34;5010454;28;20164;-46
2023/05/25 07:20:55;;;;;;;27.85;6.25;;;;;;;11.46;90.56;102430.44;5011825;28;20585;-45
2023/05/25 07:23:21;;;;;;;30.45;6.43;;;;;;;11.73;90.98;102430.88;5011346;28;20194;-46
2023/05/25 07:25:47;;;;;;;32.30;6.72;;;;;;;11.78;90.08;102439.72;5010351;28;20200;-45
2023/05/25 07:28:12;;;;;;;28.50;6.15;;;;;;;11.75;89.27;102434.44;5011634;28;20196;-45
2023/05/25 07:30:39;;;;;;;26.15;6.53;;;;;;;12.02;89.04;102434.88;5011524;28;20652;-46
2023/05/25 07:33:05;;;;;;;28.98;6.95;;;;;;;12.18;88.42;102431.00;5011099;28;20227;-45
2023/05/25 07:35:30;;;;;;;26.75;7.43;;;;;;;12.04;88.10;102430.38;5010356;28;20242;-45
2023/05/25 07:38:00;;;;;;;31.23;7.03;;;;;;;11.70;88.64;102444.38;5011130;28;20208;-48
2023/05/25 07:40:26;;;;;;;28.90;6.15;;;;;;;12.12;89.26;102445.44;5011997;28;20180;-47
2023/05/25 07:42:53;;;;;;;30.27;7.57;;;;;;;12.19;88.57;102437.25;5009787;28;20658;-46
2023/05/25 07:45:18;;;;;;;27.23;6.63;;;;;;;12.29;87.36;102430.78;5009878;28;20215;-46
2023/05/25 07:47:44;;;;;;;27.58;6.32;;;;;;;12.31;87.00;102427.16;5008391;28;20213;-47
2023/05/25 07:50:10;;;;;;;29.55;6.93;;;;;;;12.54;86.40;102437.44;4991971;28;20185;-46
2023/05/25 07:52:37;;;;;;;27.33;6.55;;;;;;;12.44;85.68;102430.50;5011107;28;20185;-46
2023/05/25 07:55:04;;;;;;;29.25;6.53;;;;;;;12.19;85.57;102445.31;5011379;28;20212;-46
2023/05/25 07:57:30;;;;;;;34.50;6.78;;;;;;;12.33;84.96;102433.38;5010238;28;20164;-45
2023/05/25 07:59:55;;;;;;;30.63;6.82;;;;;;;12.13;84.77;102438.25;5010974;28;20596;-45
2023/05/25 08:02:21;;;;;;;28.23;7.00;;;;;;;12.09;84.67;102436.53;5009939;28;20501;-47
2023/05/25 08:04:46;;;;;;;36.92;7.68;;;;;;;12.32;84.95;102431.59;5010576;28;20241;-47
2023/05/25 08:07:12;;;;;;;33.20;6.68;;;;;;;12.55;84.58;102433.84;5010573;28;20212;-45
2023/05/25 08:09:37;;;;;;;26.55;7.07;;;;;;;12.31;84.21;102431.63;5010554;28;20176;-46
2023/05/25 08:12:03;;;;;;;29.33;6.85;;;;;;;12.27;84.45;102444.25;5010719;28;20518;-46
2023/05/25 08:14:28;;;;;;;25.83;6.93;;;;;;;12.00;84.49;102451.00;5008174;28;20256;-46
2023/05/25 08:16:54;;;;;;;30.73;7.18;;;;;;;12.17;84.64;102453.41;5009546;28;20177;-46
2023/05/25 08:19:19;;;;;;;27.25;6.55;;;;;;;12.62;84.01;102456.09;5010104;28;20199;-47
2023/05/25 08:21:45;;;;;;;30.35;6.63;;;;;;;12.87;83.45;102452.88;5009823;28;20184;-46
2023/05/25 08:24:10;;;;;;;31.23;6.30;;;;;;;13.26;82.93;102461.00;5009574;28;20288;-46
2023/05/25 08:26:37;;;;;;;28.15;6.68;;;;;;;12.99;82.31;102458.88;5009553;28;20252;-48
2023/05/25 08:29:03;;;;;;;26.95;6.32;;;;;;;13.74;81.17;102458.06;5007723;28;20188;-47
2023/05/25 08:31:33;;;;;;;26.00;5.90;;;;;;;13.81;79.04;102449.75;5006530;28;20207;-48
2023/05/25 08:34:00;;;;;;;28.23;7.10;;;;;;;13.49;78.10;102447.91;5009975;28;20200;-50
2023/05/25 08:36:26;;;;;;;29.17;6.55;;;;;;;13.19;78.39;102449.47;5010019;28;20200;-49
2023/05/25 08:38:52;;;;;;;28.98;7.15;;;;;;;13.06;77.98;102443.50;5009023;28;20211;-50
2023/05/25 08:41:20;;;;;;;28.15;6.82;;;;;;;12.93;78.14;102453.63;5010345;28;20294;-49
2023/05/25 08:43:45;;;;;;;31.35;7.15;;;;;;;13.29;78.35;102447.47;5007817;28;20188;-49
2023/05/25 08:46:20;;;;;;;25.08;6.40;;;;;;;13.35;77.52;102460.78;5009179;28;20681;-48
2023/05/25 08:48:50;;;;;;;28.60;6.78;;;;;;;13.07;77.85;102456.00;5001061;28;20218;-52
2023/05/25 08:51:16;;;;;;;27.25;7.25;;;;;;;13.20;77.15;102456.63;5008418;28;20283;-51
2023/05/25 08:53:42;;;;;;;25.05;7.25;;;;;;;13.90;77.17;102462.09;5003257;28;20316;-51
2023/05/25 08:56:10;;;;;;;30.23;7.35;;;;;;;13.72;76.56;102452.69;5008728;28;20600;-51
2023/05/25 08:58:44;;;;;;;25.98;6.90;;;;;;;14.28;75.04;102435.94;5008735;28;20196;-51
2023/05/25 09:01:14;;;;;;;45.45;19.38;;;;;;;14.72;73.77;102438.34;5008288;28;20204;-52
2023/05/25 09:03:40;;;;;;;29.33;7.07;;;;;;;14.58;73.46;102441.41;5009193;28;20196;-51
2023/05/25 09:06:06;;;;;;;27.98;6.85;;;;;;;14.96;72.88;102440.28;5009336;28;20202;-49
2023/05/25 09:08:33;;;;;;;24.20;6.45;;;;;;;15.62;71.94;102432.75;5006994;28;20207;-50
2023/05/25 09:10:58;;;;;;;25.55;7.18;;;;;;;15.84;69.93;102424.81;5009664;28;20253;-50
2023/05/25 09:13:25;;;;;;;27.73;6.47;;;;;;;16.16;68.69;102427.31;5008786;28;20388;-53
2023/05/25 09:15:51;;;;;;;27.48;6.18;;;;;;;16.03;66.95;102419.66;5009473;28;20231;-52
2023/05/25 09:18:17;;;;;;;24.05;6.38;;;;;;;16.13;67.44;102427.41;5007953;28;20183;-50
2023/05/25 09:20:42;;;;;;;30.38;6.90;;;;;;;15.00;68.67;102425.75;5008963;28;20284;-50
2023/05/25 09:23:09;;;;;;;23.13;6.30;;;;;;;14.07;70.91;102450.91;5007736;28;20194;-50
2023/05/25 09:25:36;;;;;;;27.90;7.20;;;;;;;14.88;71.63;102454.94;5008678;28;20212;-49
2023/05/25 09:28:02;;;;;;;24.73;7.00;;;;;;;14.81;71.13;102444.31;5006945;28;20609;-51
2023/05/25 09:30:31;;;;;;;27.45;6.35;;;;;;;13.86;72.33;102443.38;5009261;28;20185;-49
2023/05/25 09:33:13;;;;;;;26.70;6.45;;;;;;;13.88;74.14;102474.72;5008277;28;20264;-49
2023/05/25 09:35:39;;;;;;;27.25;6.47;;;;;;;14.28;73.40;102460.22;5007665;28;20204;-50
2023/05/25 09:38:06;;;;;;;30.63;6.97;;;;;;;14.86;71.74;102454.09;5008285;28;20191;-50
2023/05/25 09:40:34;;;;;;;25.40;6.72;;;;;;;14.90;71.54;102453.94;5009156;28;20181;-50
2023/05/25 09:43:03;;;;;;;23.75;6.00;;;;;;;15.39;69.06;102446.13;5007096;28;20217;-51
2023/05/25 09:45:30;;;;;;;24.33;6.20;;;;;;;14.81;68.83;102440.75;5007318;28;20687;-50
2023/05/25 09:47:57;;;;;;;25.33;6.53;;;;;;;14.69;71.16;102455.47;5008386;28;20231;-51
2023/05/25 09:50:22;;;;;;;26.08;6.85;;;;;;;14.45;72.04;102461.53;5007114;28;20181;-50
2023/05/25 09:52:50;;;;;;;26.33;6.93;;;;;;;14.50;71.64;102459.63;5009013;28;20184;-50
2023/05/25 09:55:16;;;;;;;28.23;6.50;;;;;;;14.62;71.47;102459.28;5009162;28;20595;-50
2023/05/25 09:57:43;;;;;;;26.73;6.32;;;;;;;14.80;71.02;102453.34;5007334;28;20256;-49
2023/05/25 10:00:10;;;;;;;26.17;6.53;;;;;;;15.00;70.85;102459.97;5008707;28;20650;-50
2023/05/25 10:02:38;;;;;;;32.75;7.00;;;;;;;14.95;69.81;102445.72;5008960;28;20215;-50
2023/05/25 10:05:04;;;;;;;26.83;6.70;;;;;;;14.80;69.97;102455.16;5009065;28;20283;-50
2023/05/25 10:07:30;;;;;;;26.23;6.22;;;;;;;14.26;70.20;102445.03;5008867;28;20197;-51
2023/05/25 10:10:01;;;;;;;27.10;6.10;;;;;;;14.42;70.08;102455.31;5008905;28;20185;-50
2023/05/25 10:12:28;;;;;;;19.77;6.00;;;;;;;14.72;69.47;102455.41;5023074;28;20177;-51
2023/05/25 10:14:54;;;;;;;26.95;6.38;;;;;;;15.16;68.63;102458.56;5023534;28;20212;-49
2023/05/25 10:17:22;;;;;;;20.80;6.28;;;;;;;15.02;68.40;102463.47;5008071;28;20183;-52
2023/05/25 10:19:56;;;;;;;22.95;5.80;;;;;;;14.86;67.79;102446.00;5009135;28;20264;-48
2023/05/25 10:22:35;;;;;;;25.25;6.15;;;;;;;14.96;68.28;102453.78;5008951;28;20679;-50
2023/05/25 10:25:29;;;;;;;28.98;6.30;;;;;;;15.07;67.74;102452.56;5007565;28;20219;-50
2023/05/25 10:28:01;;;;;;;21.83;6.28;;;;;;;14.88;67.71;102446.84;5001884;28;20662;-49
2023/05/25 10:30:27;;;;;;;22.55;6.38;;;;;;;15.13;67.44;102458.66;5008036;28;20200;-49
2023/05/25 10:32:58;;;;;;;21.98;5.82;;;;;;;15.33;67.30;102459.84;5008518;28;20173;-48
2023/05/25 10:35:24;;;;;;;24.17;6.45;;;;;;;14.98;67.52;102453.72;5003828;28;20192;-49
2023/05/25 10:37:51;;;;;;;25.88;6.82;;;;;;;15.09;67.42;102456.09;5008284;28;20673;-49
2023/05/25 10:40:19;;;;;;;24.42;6.68;;;;;;;15.27;67.37;102457.34;5007959;28;20578;-49
2023/05/25 10:42:45;;;;;;;27.65;6.55;;;;;;;15.25;67.24;102452.84;5008334;28;20243;-50
2023/05/25 10:45:11;;;;;;;24.17;5.88;;;;;;;15.37;67.33;102457.00;5008992;28;20629;-51
2023/05/25 10:47:42;;;;;;;29.05;6.78;;;;;;;15.04;67.31;102461.63;5008617;28;20287;-50
2023/05/25 10:50:27;;;;;;;24.75;6.00;;;;;;;14.93;67.91;102466.47;5008058;28;20209;-50
2023/05/25 10:53:04;;;;;;;30.25;6.82;;;;;;;14.96;68.36;102469.97;5007175;28;20336;-50
2023/05/25 10:55:47;;;;;;;27.73;6.65;;;;;;;15.16;68.01;102463.94;5008676;28;20279;-49
2023/05/25 10:58:15;;;;;;;21.48;6.25;;;;;;;15.57;67.66;102468.97;5007936;28;20279;-49
2023/05/25 11:00:41;;;;;;;25.05;5.97;;;;;;;15.09;67.17;102462.38;5008203;28;20204;-49
2023/05/25 11:03:08;;;;;;;29.77;6.97;;;;;;;14.87;68.00;102469.34;5005348;28;20189;-49
2023/05/25 11:05:38;;;;;;;28.55;6.38;;;;;;;14.93;67.98;102472.75;5008284;28;20249;-50
2023/05/25 11:08:10;;;;;;;27.27;7.13;;;;;;;14.80;67.73;102463.25;5008077;28;20567;-51
2023/05/25 11:10:47;;;;;;;25.70;6.32;;;;;;;15.37;67.87;102475.00;5008898;28;20224;-49
2023/05/25 11:13:34;;;;;;;25.52;6.53;;;;;;;14.93;67.69;102478.13;5010254;28;20188;-50
2023/05/25 11:16:18;;;;;;;25.08;6.30;;;;;;;14.93;67.77;102474.56;5011962;28;20561;-50